Time;durP1;ratioP1;P1;durP2;ratioP2;P2;SDS_P1;SDS_P2;PMS_P1;PMS_P2;Temp;Humidity;BMP_temperature;BMP_pressure;BME280_temperature;BME280_humidity;BME280_pressure;Samples;Min_cycle;Max_cycle;Signal;HPM_P1;HPM_P2
2022/01/09 00:01:01;;;;;;;12.90;9.03;;;4.10;99.90;;;;;;5055300;28;20106;-82
2022/01/09 00:03:46;;;;;;;12.05;9.20;;;4.00;99.90;;;;;;5054418;28;20044;-82
2022/01/09 00:06:29;;;;;;;;;;;4.10;99.90;;;;;;5055175;28;20452;-83
2022/01/09 00:09:15;;;;;;;11.48;8.05;;;4.10;99.90;;;;;;5055956;28;20411;-82
2022/01/09 00:11:59;;;;;;;11.10;8.83;;;4.10;99.90;;;;;;5054687;28;20043;-82
2022/01/09 00:14:43;;;;;;;11.90;8.67;;;4.10;99.90;;;;;;5054305;28;20039;-82
2022/01/09 00:17:27;;;;;;;;;;;4.30;99.90;;;;;;5055148;28;20129;-82
2022/01/09 00:20:12;;;;;;;10.60;8.25;;;4.40;99.90;;;;;;5054752;28;19969;-83
2022/01/09 00:22:57;;;;;;;11.77;8.52;;;4.10;99.90;;;;;;5055656;28;20550;-82
2022/01/09 00:25:41;;;;;;;12.43;8.57;;;4.10;99.90;;;;;;5054091;28;20500;-82
2022/01/09 00:28:25;;;;;;;10.60;9.02;;;4.10;99.90;;;;;;5055456;28;20063;-82
2022/01/09 00:31:10;;;;;;;12.70;10.10;;;4.10;99.90;;;;;;5055470;28;20083;-81
2022/01/09 00:33:54;;;;;;;10.97;9.00;;;4.10;99.90;;;;;;5040178;28;20123;-82
2022/01/09 00:36:38;;;;;;;;;;;4.10;99.90;;;;;;5054319;28;20040;-83
2022/01/09 00:39:22;;;;;;;11.73;9.30;;;4.20;99.90;;;;;;5055321;28;20426;-82
2022/01/09 00:42:07;;;;;;;13.07;9.83;;;4.10;99.90;;;;;;5040453;28;20040;-82
2022/01/09 00:44:51;;;;;;;;;;;4.10;99.90;;;;;;5054873;28;20547;-81
2022/01/09 00:47:36;;;;;;;14.97;8.97;;;4.10;99.90;;;;;;5053577;28;19967;-83
2022/01/09 00:50:20;;;;;;;13.65;10.00;;;4.10;99.90;;;;;;5052023;28;20125;-82
2022/01/09 00:53:04;;;;;;;;;;;4.10;99.90;;;;;;5053578;28;20047;-82
2022/01/09 00:55:49;;;;;;;11.65;9.25;;;4.10;99.90;;;;;;5053076;28;19963;-81
2022/01/09 00:58:33;;;;;;;13.67;10.13;;;4.10;99.90;;;;;;5053852;28;20547;-82
2022/01/09 01:01:17;;;;;;;14.80;9.97;;;4.10;99.90;;;;;;5053999;28;20047;-82
2022/01/09 01:04:02;;;;;;;16.07;10.80;;;4.10;99.90;;;;;;5054273;28;20039;-81
2022/01/09 01:06:48;;;;;;;14.40;9.97;;;4.20;99.90;;;;;;5054285;28;20492;-81
2022/01/09 01:09:33;;;;;;;13.85;10.48;;;4.20;99.90;;;;;;5054765;28;20047;-81
2022/01/09 01:12:17;;;;;;;14.40;10.87;;;4.10;99.90;;;;;;5053879;28;20095;-81
2022/01/09 01:15:02;;;;;;;;;;;4.20;99.90;;;;;;5053740;28;20052;-82
2022/01/09 01:17:46;;;;;;;;;;;4.20;99.90;;;;;;5054558;28;19974;-81
2022/01/09 01:20:32;;;;;;;14.85;10.02;;;4.20;99.90;;;;;;5053545;28;19981;-81
2022/01/09 01:23:16;;;;;;;13.53;10.37;;;4.10;99.90;;;;;;5053584;28;20087;-82
2022/01/09 01:26:02;;;;;;;14.23;10.38;;;4.40;99.90;;;;;;5052973;28;20424;-81
2022/01/09 01:28:46;;;;;;;16.83;11.43;;;4.20;99.90;;;;;;5052940;28;20040;-81
2022/01/09 01:31:30;;;;;;;16.08;11.77;;;4.20;99.90;;;;;;5054297;28;20040;-81
2022/01/09 01:34:14;;;;;;;14.52;11.20;;;4.20;99.90;;;;;;5053305;28;20068;-81
2022/01/09 01:36:59;;;;;;;18.40;12.32;;;4.30;99.90;;;;;;5052682;28;20095;-81
2022/01/09 01:39:43;;;;;;;16.20;12.07;;;4.20;99.90;;;;;;5052626;28;20040;-82
2022/01/09 01:42:28;;;;;;;18.00;11.43;;;4.20;99.90;;;;;;5054175;28;20044;-81
2022/01/09 01:45:12;;;;;;;;;;;4.30;99.90;;;;;;5054537;28;20062;-82
2022/01/09 01:48:05;;;;;;;14.27;10.20;;;4.20;99.90;;;;;;5052570;28;19974;-81
2022/01/09 01:50:50;;;;;;;15.32;10.23;;;4.20;99.90;;;;;;5052456;28;20048;-81
2022/01/09 01:53:34;;;;;;;17.43;11.20;;;4.30;99.90;;;;;;5053890;28;20452;-81
2022/01/09 01:56:20;;;;;;;17.45;11.52;;;4.30;99.90;;;;;;5053789;28;20059;-81
2022/01/09 01:59:04;;;;;;;20.80;12.70;;;4.30;99.90;;;;;;5052267;28;20052;-82
2022/01/09 02:01:48;;;;;;;;;;;4.60;99.90;;;;;;5053540;28;20455;-82
2022/01/09 02:04:33;;;;;;;20.33;12.13;;;4.70;99.90;;;;;;5052622;28;20395;-81
2022/01/09 02:07:17;;;;;;;19.15;12.02;;;4.20;99.90;;;;;;5053552;28;20047;-81
2022/01/09 02:10:07;;;;;;;19.30;12.48;;;4.30;99.90;;;;;;5053111;28;20087;-81
2022/01/09 02:12:55;;;;;;;22.27;13.38;;;4.30;99.90;;;;;;5052077;28;20040;-82
2022/01/09 02:15:46;;;;;;;22.58;14.38;;;4.30;99.90;;;;;;5053521;28;20090;-81
2022/01/09 02:18:30;;;;;;;18.05;11.80;;;4.40;99.90;;;;;;5053398;28;20400;-81
2022/01/09 02:21:16;;;;;;;24.35;12.93;;;4.30;99.90;;;;;;5052428;28;20064;-81
2022/01/09 02:24:00;;;;;;;19.80;11.88;;;4.70;99.90;;;;;;5052795;28;20040;-82
2022/01/09 02:26:44;;;;;;;20.90;12.60;;;4.40;99.90;;;;;;5052190;28;20052;-81
2022/01/09 02:29:28;;;;;;;21.02;13.02;;;4.40;99.90;;;;;;5052307;28;20075;-81
2022/01/09 02:32:15;;;;;;;20.80;12.32;;;4.40;99.90;;;;;;5056982;28;20059;-81
2022/01/09 02:35:00;;;;;;;22.40;11.75;;;4.40;99.90;;;;;;5057857;28;20094;-81
2022/01/09 02:37:44;;;;;;;;;;;4.40;99.90;;;;;;5072275;28;20496;-82
2022/01/09 02:40:28;;;;;;;20.15;10.88;;;4.70;99.90;;;;;;5073102;28;19919;-81
2022/01/09 02:43:12;;;;;;;22.60;11.82;;;4.40;99.90;;;;;;5071534;28;20043;-81
2022/01/09 02:48:46;;;;;;;19.25;10.73;;;5.20;99.90;;;;;;5052806;28;20047;-82
2022/01/09 02:51:30;;;;;;;17.33;10.77;;;4.60;99.90;;;;;;5037900;28;20119;-82
2022/01/09 02:57:18;;;;;;;18.45;9.23;;;4.60;99.90;;;;;;5052712;28;20098;-81
2022/01/09 03:00:03;;;;;;;;;;;4.70;99.90;;;;;;5037777;28;20047;-82
2022/01/09 03:02:47;;;;;;;16.88;7.32;;;4.70;99.90;;;;;;5052726;28;19915;-82
2022/01/09 03:05:31;;;;;;;;;;;4.70;99.90;;;;;;5037940;28;20067;-81
2022/01/09 03:08:16;;;;;;;20.42;7.57;;;4.80;99.90;;;;;;5037192;28;19916;-81
2022/01/09 03:11:00;;;;;;;21.42;7.82;;;4.80;99.90;;;;;;5052113;28;20043;-81
2022/01/09 03:13:44;;;;;;;19.98;7.35;;;4.90;99.90;;;;;;5052276;28;20044;-80
2022/01/09 03:16:28;;;;;;;34.85;9.00;;;4.90;99.90;;;;;;5037561;28;20501;-80
2022/01/09 03:19:13;;;;;;;19.40;8.20;;;5.20;99.90;;;;;;5037018;28;20440;-81
2022/01/09 03:21:57;;;;;;;27.23;8.30;;;5.00;99.90;;;;;;5037335;28;20408;-86
2022/01/09 03:24:42;;;;;;;;;;;4.70;99.90;;;;;;5052859;28;20515;-81
2022/01/09 03:27:26;;;;;;;22.75;7.78;;;5.00;99.90;;;;;;5037381;28;19997;-81
2022/01/09 03:30:11;;;;;;;20.85;7.13;;;5.00;99.90;;;;;;5036810;28;20059;-81
2022/01/09 03:32:56;;;;;;;19.77;7.18;;;5.10;99.90;;;;;;5037233;28;20060;-81
2022/01/09 03:35:40;;;;;;;33.03;7.50;;;5.80;99.90;;;;;;5037285;28;20083;-81
2022/01/09 03:38:24;;;;;;;18.75;6.28;;;5.90;99.90;;;;;;5052434;28;20052;-81
2022/01/09 03:41:08;;;;;;;;;;;5.10;99.90;;;;;;5037094;28;20496;-81
2022/01/09 03:43:53;;;;;;;31.15;6.15;;;5.20;99.90;;;;;;5052221;28;20336;-81
2022/01/09 03:46:37;;;;;;;;;;;5.20;99.90;;;;;;5037512;28;20469;-81
2022/01/09 03:49:22;;;;;;;32.15;6.00;;;5.50;99.90;;;;;;5051827;28;19927;-81
2022/01/09 03:52:06;;;;;;;29.75;6.68;;;5.50;99.90;;;;;;5051742;28;20056;-81
2022/01/09 03:54:50;;;;;;;42.08;7.93;;;5.40;99.90;;;;;;5036980;28;20040;-82
2022/01/09 03:57:34;;;;;;;41.33;5.97;;;5.40;99.90;;;;;;5037099;28;20051;-81
2022/01/09 04:00:20;;;;;;;;;;;5.40;99.90;;;;;;5052081;28;20064;-81
2022/01/09 04:03:04;;;;;;;54.95;8.52;;;5.50;99.90;;;;;;5036547;28;19963;-82
2022/01/09 04:05:48;;;;;;;55.42;6.78;;;5.50;99.90;;;;;;5036946;28;20200;-82
2022/01/09 04:08:34;;;;;;;65.05;8.60;;;5.60;99.90;;;;;;5036942;28;20099;-80
2022/01/09 04:11:27;;;;;;;56.88;6.75;;;5.70;99.90;;;;;;5022938;28;20576;-82
2022/01/09 04:14:12;;;;;;;46.22;5.30;;;5.70;99.90;;;;;;5036588;28;20504;-82
2022/01/09 04:16:58;;;;;;;45.33;7.35;;;5.80;99.90;;;;;;5036883;28;20102;-81
2022/01/09 04:19:43;;;;;;;42.38;5.88;;;5.80;99.90;;;;;;5037165;28;20044;-80
2022/01/09 04:22:27;;;;;;;44.65;6.18;;;5.80;99.90;;;;;;5036437;28;20059;-81
2022/01/09 04:25:11;;;;;;;;;;;5.90;99.90;;;;;;5039246;28;20083;-82
2022/01/09 04:27:56;;;;;;;49.50;6.50;;;5.90;99.90;;;;;;5055572;28;20368;-82
2022/01/09 04:30:40;;;;;;;37.92;5.57;;;5.90;99.90;;;;;;5055587;28;20040;-81
2022/01/09 04:33:24;;;;;;;39.42;5.53;;;5.80;99.90;;;;;;5055197;28;20484;-81
2022/01/09 04:36:08;;;;;;;;;;;5.90;99.90;;;;;;5026312;28;20095;-83
2022/01/09 04:38:54;;;;;;;42.35;7.05;;;5.90;99.90;;;;;;5040057;28;19971;-81
2022/01/09 04:41:38;;;;;;;34.95;4.90;;;5.90;99.90;;;;;;5026522;28;20453;-81
2022/01/09 04:44:23;;;;;;;33.60;6.75;;;5.90;99.90;;;;;;5039770;28;20060;-82
2022/01/09 04:47:12;;;;;;;50.45;6.22;;;5.90;99.90;;;;;;5040088;28;20087;-81
2022/01/09 04:49:59;;;;;;;32.78;4.45;;;5.90;99.90;;;;;;5055015;28;20121;-84
2022/01/09 04:52:43;;;;;;;32.40;5.60;;;6.20;99.90;;;;;;5055138;28;20409;-81
2022/01/09 04:55:28;;;;;;;41.00;6.05;;;5.90;99.90;;;;;;5054572;28;20044;-81
2022/01/09 04:58:13;;;;;;;23.77;5.47;;;5.90;99.90;;;;;;5039281;28;20080;-81
2022/01/09 05:00:57;;;;;;;35.95;4.55;;;5.90;99.90;;;;;;5055027;28;20083;-81
2022/01/09 05:03:42;;;;;;;31.58;4.82;;;5.90;99.90;;;;;;5039803;28;20055;-81
2022/01/09 05:06:27;;;;;;;26.83;5.18;;;5.90;99.90;;;;;;5039318;28;20500;-81
2022/01/09 05:09:11;;;;;;;23.52;5.20;;;6.00;99.90;;;;;;5039742;28;20564;-81
2022/01/09 05:11:56;;;;;;;40.03;5.32;;;6.20;99.90;;;;;;5025534;28;20505;-81
2022/01/09 05:14:40;;;;;;;36.97;5.78;;;5.90;99.90;;;;;;5054709;28;20036;-81
2022/01/09 05:17:24;;;;;;;24.25;4.10;;;5.90;99.90;;;;;;5039039;28;20504;-81
2022/01/09 05:20:09;;;;;;;40.42;6.80;;;5.90;99.90;;;;;;5025488;28;20044;-81
2022/01/09 05:22:53;;;;;;;28.90;4.47;;;5.80;99.90;;;;;;5025452;28;20080;-82
2022/01/09 05:25:37;;;;;;;;;;;5.80;99.90;;;;;;5039391;28;20413;-81
2022/01/09 05:28:21;;;;;;;30.20;4.97;;;5.80;99.90;;;;;;5054045;28;20375;-81
2022/01/09 05:31:06;;;;;;;24.40;5.22;;;5.80;99.90;;;;;;5039158;28;20044;-81
2022/01/09 05:33:50;;;;;;;34.17;6.00;;;5.80;99.90;;;;;;5054233;28;20509;-85
2022/01/09 05:36:34;;;;;;;;;;;5.70;99.90;;;;;;5053718;28;20036;-81
2022/01/09 05:39:18;;;;;;;32.92;3.75;;;5.60;99.90;;;;;;5053911;28;20305;-82
2022/01/09 05:42:06;;;;;;;27.08;5.18;;;5.70;99.90;;;;;;5054038;28;20071;-81
2022/01/09 05:44:50;;;;;;;21.70;4.63;;;5.60;99.90;;;;;;5038900;28;20032;-81
2022/01/09 05:47:34;;;;;;;27.77;4.65;;;5.60;99.90;;;;;;5053582;28;20535;-81
2022/01/09 05:50:19;;;;;;;26.02;4.55;;;5.60;99.90;;;;;;5053668;28;20048;-92
2022/01/09 05:53:03;;;;;;;19.17;3.95;;;5.60;99.90;;;;;;5038799;28;20126;-82
2022/01/09 05:55:48;;;;;;;14.52;3.47;;;5.50;99.90;;;;;;5038921;28;20067;-81
2022/01/09 05:58:33;;;;;;;;;;;5.50;99.90;;;;;;5053850;28;20102;-81
2022/01/09 06:01:18;;;;;;;15.63;3.78;;;5.50;99.90;;;;;;5038694;28;19955;-81
2022/01/09 06:04:02;;;;;;;;;;;5.60;99.90;;;;;;5054148;28;20047;-81
2022/01/09 06:06:46;;;;;;;20.55;3.72;;;5.50;99.90;;;;;;5039189;28;19958;-81
2022/01/09 06:09:30;;;;;;;;;;;5.50;99.90;;;;;;5053733;28;20130;-81
2022/01/09 06:12:15;;;;;;;24.23;3.88;;;5.50;99.90;;;;;;5053822;28;20264;-81
2022/01/09 06:14:59;;;;;;;;;;;6.00;99.90;;;;;;5053873;28;20078;-81
2022/01/09 06:17:44;;;;;;;29.42;4.25;;;5.40;99.90;;;;;;5053074;28;19931;-82
2022/01/09 06:20:28;;;;;;;20.02;3.80;;;5.40;99.90;;;;;;5053057;28;20040;-81
2022/01/09 06:23:12;;;;;;;18.88;3.47;;;5.50;99.90;;;;;;5038306;28;20059;-81
2022/01/09 06:25:56;;;;;;;;;;;5.50;99.90;;;;;;5038604;28;20173;-82
2022/01/09 06:28:41;;;;;;;19.02;3.78;;;5.40;99.90;;;;;;5052966;28;19991;-81
2022/01/09 06:31:25;;;;;;;;;;;5.40;99.90;;;;;;5038368;28;20039;-83
2022/01/09 06:34:11;;;;;;;22.25;3.22;;;5.40;99.90;;;;;;5038331;28;20277;-82
2022/01/09 06:36:56;;;;;;;23.80;4.32;;;5.30;99.90;;;;;;5024354;28;20071;-82
2022/01/09 06:39:40;;;;;;;;;;;5.40;99.90;;;;;;5053176;28;20040;-81
2022/01/09 06:42:25;;;;;;;20.77;3.38;;;5.40;99.90;;;;;;5038084;28;19916;-82
2022/01/09 06:45:10;;;;;;;21.45;3.45;;;5.30;99.90;;;;;;5038038;28;20466;-82
2022/01/09 06:47:56;;;;;;;20.63;5.18;;;5.30;99.90;;;;;;5052284;28;20051;-82
2022/01/09 06:50:40;;;;;;;26.17;3.65;;;5.30;99.90;;;;;;5037598;28;20079;-81
2022/01/09 06:53:24;;;;;;;16.67;3.28;;;5.30;99.90;;;;;;5052848;28;20040;-83
2022/01/09 06:56:08;;;;;;;27.80;5.95;;;5.30;99.90;;;;;;5052862;28;20138;-82
2022/01/09 06:58:52;;;;;;;;;;;5.30;99.90;;;;;;5052808;28;20186;-81
2022/01/09 07:01:36;;;;;;;16.20;3.30;;;5.30;99.90;;;;;;5063688;28;20023;-82
2022/01/09 07:04:20;;;;;;;18.20;3.40;;;5.30;99.90;;;;;;5072930;28;20536;-81
2022/01/09 07:07:05;;;;;;;16.98;3.28;;;5.30;99.90;;;;;;5057689;28;20039;-82
2022/01/09 07:09:49;;;;;;;22.85;3.55;;;5.30;99.90;;;;;;5043373;28;20079;-82
2022/01/09 07:12:35;;;;;;;29.00;3.33;;;5.30;99.90;;;;;;5057261;28;20106;-82
2022/01/09 07:15:19;;;;;;;25.83;3.83;;;5.20;99.90;;;;;;5072780;28;20113;-82
2022/01/09 07:18:03;;;;;;;23.27;4.88;;;5.30;99.90;;;;;;5057502;28;20554;-82
2022/01/09 07:20:47;;;;;;;;;;;5.20;99.90;;;;;;5057653;28;20082;-82
2022/01/09 07:23:31;;;;;;;19.25;3.45;;;5.10;99.90;;;;;;5072632;28;20342;-82
2022/01/09 07:26:16;;;;;;;23.27;3.92;;;5.10;99.90;;;;;;5072716;28;20039;-82
2022/01/09 07:29:00;;;;;;;17.60;3.28;;;5.10;99.90;;;;;;5057821;28;20044;-82
2022/01/09 07:31:44;;;;;;;16.70;5.18;;;5.10;99.90;;;;;;5034452;28;20086;-82
2022/01/09 07:34:28;;;;;;;16.65;3.40;;;5.10;99.90;;;;;;5071189;28;20082;-81
2022/01/09 07:37:12;;;;;;;;;;;5.20;99.90;;;;;;5072604;28;20098;-82
2022/01/09 07:40:02;;;;;;;19.15;3.47;;;5.00;99.90;;;;;;5072269;28;19918;-82
2022/01/09 07:42:47;;;;;;;19.67;3.83;;;5.00;99.90;;;;;;5056626;28;20483;-82
2022/01/09 07:45:32;;;;;;;11.52;2.78;;;5.00;99.90;;;;;;5055356;28;20086;-81
2022/01/09 07:48:16;;;;;;;19.58;3.33;;;5.00;99.90;;;;;;5056320;28;20040;-82
2022/01/09 07:51:00;;;;;;;;;;;5.00;99.90;;;;;;5045152;28;20064;-83
2022/01/09 07:53:45;;;;;;;15.48;2.58;;;5.20;99.90;;;;;;5052792;28;19974;-82
2022/01/09 07:56:29;;;;;;;;;;;4.90;99.90;;;;;;5024327;28;20107;-83
2022/01/09 07:59:13;;;;;;;16.17;2.45;;;4.90;99.90;;;;;;5040033;28;20276;-82
2022/01/09 08:01:57;;;;;;;;;;;4.80;99.90;;;;;;5056331;28;20508;-82
2022/01/09 08:04:41;;;;;;;12.80;1.70;;;5.10;99.90;;;;;;5026690;28;19924;-85
2022/01/09 08:07:26;;;;;;;13.15;3.47;;;4.80;99.90;;;;;;5056186;28;20090;-82
2022/01/09 08:10:11;;;;;;;12.30;2.10;;;4.80;99.90;;;;;;5055873;28;20068;-83
2022/01/09 08:12:54;;;;;;;16.33;4.40;;;4.80;99.90;;;;;;5055558;28;20040;-82
2022/01/09 08:15:38;;;;;;;;;;;4.80;99.90;;;;;;5056739;28;20091;-83
2022/01/09 08:18:23;;;;;;;12.93;2.47;;;4.70;99.90;;;;;;5040746;28;20391;-82
2022/01/09 08:21:07;;;;;;;8.63;2.30;;;4.70;99.90;;;;;;5055950;28;20044;-82
2022/01/09 08:23:51;;;;;;;18.23;3.00;;;4.70;99.90;;;;;;5056073;28;20163;-82
2022/01/09 08:26:36;;;;;;;14.35;3.67;;;4.70;99.90;;;;;;5056189;28;20094;-82
2022/01/09 08:29:20;;;;;;;18.92;2.20;;;4.70;99.90;;;;;;5046169;28;20733;-82
2022/01/09 08:32:06;;;;;;;12.90;2.20;;;4.80;99.90;;;;;;5075478;28;20040;-83
2022/01/09 08:34:50;;;;;;;12.52;2.47;;;4.70;99.90;;;;;;5072875;28;20500;-83
2022/01/09 08:37:36;;;;;;;16.33;3.00;;;4.70;99.90;;;;;;5046454;28;20043;-87
2022/01/09 08:40:22;;;;;;;14.27;2.53;;;4.70;99.90;;;;;;5069404;28;20180;-84
2022/01/09 08:43:06;;;;;;;17.23;3.42;;;4.70;99.90;;;;;;5051984;28;20170;-84
2022/01/09 08:45:50;;;;;;;12.98;2.97;;;4.70;99.90;;;;;;5053907;28;20041;-83
2022/01/09 08:48:34;;;;;;;11.73;2.22;;;4.70;99.90;;;;;;5059956;28;20098;-85
2022/01/09 08:51:18;;;;;;;;;;;4.80;99.90;;;;;;5060264;28;20120;-83
2022/01/09 08:54:03;;;;;;;12.50;2.28;;;4.70;99.90;;;;;;5074844;28;19920;-84
2022/01/09 08:56:47;;;;;;;;;;;4.70;99.90;;;;;;5075286;28;20531;-87
2022/01/09 08:59:31;;;;;;;12.00;2.15;;;4.70;99.90;;;;;;5075202;28;19989;-84
2022/01/09 09:02:15;;;;;;;14.52;2.85;;;4.70;99.90;;;;;;5074877;28;20043;-84
2022/01/09 09:04:59;;;;;;;;;;;4.80;99.90;;;;;;5059706;28;20498;-85
2022/01/09 09:07:43;;;;;;;21.30;3.22;;;4.80;99.90;;;;;;5059389;28;19915;-85
2022/01/09 09:10:28;;;;;;;7.60;2.35;;;4.80;99.90;;;;;;5035975;28;20035;-85
2022/01/09 09:13:12;;;;;;;15.70;3.35;;;4.90;99.90;;;;;;5074466;28;20083;-83
2022/01/09 09:15:57;;;;;;;27.60;4.40;;;5.00;99.90;;;;;;5045192;28;20102;-83
2022/01/09 09:18:43;;;;;;;13.73;2.40;;;5.00;99.90;;;;;;5074197;28;20102;-85
2022/01/09 09:21:27;;;;;;;17.73;2.72;;;5.00;99.90;;;;;;5066466;28;20583;-86
2022/01/09 09:24:12;;;;;;;;;;;5.80;99.90;;;;;;5057680;28;20420;-85
2022/01/09 09:26:57;;;;;;;23.10;3.25;;;5.10;99.90;;;;;;5057294;28;20053;-85
2022/01/09 09:29:41;;;;;;;11.25;2.20;;;5.00;99.90;;;;;;5050052;28;20043;-84
2022/01/09 09:32:26;;;;;;;17.95;3.15;;;5.10;99.90;;;;;;5044783;28;20086;-83
2022/01/09 09:35:10;;;;;;;;;;;5.10;99.90;;;;;;5034665;28;20136;-82
2022/01/09 09:37:54;;;;;;;;;;;5.10;99.90;;;;;;5049482;28;19928;-90
2022/01/09 09:40:40;;;;;;;15.68;3.15;;;5.10;99.90;;;;;;5070941;28;20474;-89
2022/01/09 09:43:24;;;;;;;15.63;3.67;;;5.10;99.90;;;;;;5058657;28;20447;-86
2022/01/09 09:46:08;;;;;;;;;;;5.10;99.90;;;;;;5074913;28;20074;-85
2022/01/09 09:48:54;;;;;;;11.25;2.10;;;5.10;99.90;;;;;;5074518;28;20003;-84
2022/01/09 09:51:38;;;;;;;10.18;2.00;;;5.10;99.90;;;;;;5059237;28;20079;-83
2022/01/09 09:54:22;;;;;;;10.07;2.10;;;5.20;99.90;;;;;;5030233;28;20101;-84
2022/01/09 09:57:06;;;;;;;;;;;5.10;99.90;;;;;;5055425;28;20508;-84
2022/01/09 10:00:18;;;;;;;10.40;1.85;;;5.10;99.90;;;;;;5055478;28;19958;-85
2022/01/09 10:03:03;;;;;;;10.50;2.05;;;5.10;99.90;;;;;;5055602;28;20408;-85
2022/01/09 10:05:47;;;;;;;7.22;1.90;;;5.10;99.90;;;;;;5052865;28;20508;-89
2022/01/09 10:08:36;;;;;;;;;;;5.10;99.90;;;;;;5057371;28;20083;-87
2022/01/09 10:11:21;;;;;;;7.70;2.83;;;5.10;99.90;;;;;;5067785;28;19916;-87
2022/01/09 10:14:33;;;;;;;7.77;2.13;;;5.10;99.90;;;;;;5051758;28;20162;-87
2022/01/09 10:17:20;;;;;;;11.85;1.67;;;5.10;99.90;;;;;;5071835;28;20069;-88
2022/01/09 10:20:14;;;;;;;5.68;1.42;;;5.10;99.90;;;;;;5057655;28;20039;-87
2022/01/09 10:22:59;;;;;;;7.28;1.67;;;5.10;99.90;;;;;;5072947;28;20102;-87
2022/01/09 10:25:43;;;;;;;7.70;1.83;;;5.10;99.90;;;;;;5058456;28;20079;-89
2022/01/09 10:28:36;;;;;;;;;;;5.10;99.90;;;;;;5058318;28;20404;-90
2022/01/09 10:31:21;;;;;;;10.38;2.05;;;5.10;99.90;;;;;;5057353;28;20020;-88
2022/01/09 10:34:07;;;;;;;10.38;2.67;;;5.20;99.90;;;;;;5057354;28;20036;-87
2022/01/09 10:36:51;;;;;;;8.80;1.88;;;5.20;99.90;;;;;;5072829;28;20077;-88
2022/01/09 10:39:36;;;;;;;11.82;1.70;;;5.20;99.90;;;;;;5057753;28;20047;-87
2022/01/09 10:42:21;;;;;;;13.15;3.10;;;5.30;99.90;;;;;;5072177;28;20154;-89
2022/01/09 10:45:20;;;;;;;7.97;1.48;;;5.30;99.90;;;;;;5043144;28;20174;-89
2022/01/09 10:48:09;;;;;;;9.13;2.80;;;5.30;99.90;;;;;;5057865;28;20393;-89
2022/01/09 10:50:54;;;;;;;7.85;2.00;;;5.30;99.90;;;;;;5073268;28;20039;-89
2022/01/09 10:53:40;;;;;;;7.07;1.63;;;5.40;99.90;;;;;;5072815;28;20078;-87
2022/01/09 10:56:25;;;;;;;12.65;2.67;;;5.40;99.90;;;;;;5072761;28;20055;-91
2022/01/09 10:59:09;;;;;;;7.47;1.67;;;5.40;99.90;;;;;;5078727;28;20047;-93
2022/01/09 11:02:00;;;;;;;10.23;1.85;;;5.40;99.90;;;;;;5059304;28;20523;-90
2022/01/09 11:04:47;;;;;;;8.88;1.92;;;5.50;99.90;;;;;;5090749;28;20024;-92
2022/01/09 11:07:31;;;;;;;9.05;1.90;;;5.50;99.90;;;;;;5086769;28;20018;-90
2022/01/09 11:10:17;;;;;;;12.30;1.80;;;5.60;99.90;;;;;;5072547;28;20439;-91
2022/01/09 11:13:02;;;;;;;12.73;3.10;;;5.60;99.90;;;;;;5056251;28;20051;-90
2022/01/09 11:16:32;;;;;;;10.90;2.15;;;5.60;99.90;;;;;;5055239;28;20094;-91
2022/01/09 11:18:53;;;;;;;10.85;2.63;;;5.70;99.90;;;;;;5083471;28;20055;-90
2022/01/09 11:21:45;;;;;;;10.38;2.05;;;5.70;99.90;;;;;;5065822;28;20104;-91
2022/01/09 11:24:46;;;;;;;11.32;1.98;;;5.90;99.90;;;;;;5050652;28;20032;-91
2022/01/09 11:27:41;;;;;;;12.82;3.03;;;5.90;99.90;;;;;;5071014;28;20036;-91
2022/01/09 11:30:31;;;;;;;13.30;2.58;;;5.90;99.90;;;;;;5048489;28;20027;-92
2022/01/09 11:33:48;;;;;;;9.02;2.65;;;6.00;99.90;;;;;;5057688;28;20059;-89
2022/01/09 11:37:04;;;;;;;12.88;2.50;;;6.00;99.90;;;;;;5076571;28;20098;-92
2022/01/09 11:39:49;;;;;;;12.25;2.53;;;6.10;99.90;;;;;;5062614;28;20063;-91
2022/01/09 11:42:33;;;;;;;16.83;3.50;;;6.20;99.90;;;;;;5076698;28;20052;-93
2022/01/09 11:45:38;;;;;;;18.35;3.63;;;6.80;99.90;;;;;;5047488;28;20163;-91
2022/01/09 11:49:00;;;;;;;14.30;2.53;;;6.30;99.90;;;;;;5072471;28;20036;-91
2022/01/09 11:51:51;;;;;;;12.95;2.78;;;6.30;99.90;;;;;;5075335;28;20495;-88
2022/01/09 11:54:58;;;;;;;12.73;2.00;;;6.70;99.90;;;;;;5074434;28;20081;-88
2022/01/09 11:57:48;;;;;;;12.75;3.55;;;6.50;99.90;;;;;;5075557;28;20052;-90
2022/01/09 12:00:38;;;;;;;12.95;2.65;;;6.40;99.90;;;;;;5076486;28;20113;-88
2022/01/09 12:03:30;;;;;;;8.18;3.38;;;6.40;99.90;;;;;;5074432;28;20549;-90
2022/01/09 12:06:16;;;;;;;12.93;2.00;;;6.40;99.90;;;;;;5073597;28;20090;-89
2022/01/09 12:09:04;;;;;;;9.35;2.00;;;6.90;99.90;;;;;;5059531;28;20047;-89
2022/01/09 12:12:03;;;;;;;11.60;1.98;;;6.50;99.90;;;;;;5076573;28;20416;-89
2022/01/09 12:14:55;;;;;;;11.02;2.40;;;7.50;99.90;;;;;;5061316;28;20058;-89
2022/01/09 12:17:45;;;;;;;14.68;2.25;;;6.50;99.90;;;;;;5060581;28;20039;-89
2022/01/09 12:20:37;;;;;;;9.45;2.20;;;6.70;99.90;;;;;;5075252;28;20070;-91
2022/01/09 12:23:22;;;;;;;12.85;2.17;;;6.50;99.90;;;;;;5061207;28;20094;-90
2022/01/09 12:26:26;;;;;;;8.18;2.50;;;6.80;99.90;;;;;;5075664;28;20512;-90
2022/01/09 12:29:30;;;;;;;9.55;2.00;;;6.60;99.90;;;;;;5060461;28;20466;-89
2022/01/09 12:32:43;;;;;;;13.85;1.95;;;6.50;99.90;;;;;;5075639;28;20063;-90
2022/01/09 12:35:27;;;;;;;11.63;2.03;;;6.50;99.90;;;;;;5060362;28;20060;-90
2022/01/09 12:38:16;;;;;;;;;;;6.50;99.90;;;;;;5076035;28;20072;-90
2022/01/09 12:41:03;;;;;;;8.20;1.88;;;6.40;99.90;;;;;;5075214;28;20380;-88
2022/01/09 12:43:50;;;;;;;9.38;1.48;;;6.50;99.90;;;;;;5060049;28;20397;-88
2022/01/09 12:46:35;;;;;;;11.68;2.50;;;7.20;99.90;;;;;;5059158;28;20089;-88
2022/01/09 12:49:22;;;;;;;9.57;2.95;;;6.50;99.90;;;;;;5059401;28;20541;-89
2022/01/09 12:52:06;;;;;;;12.73;3.08;;;6.50;99.90;;;;;;5046220;28;20476;-88
2022/01/09 12:55:06;;;;;;;10.40;2.15;;;6.50;99.90;;;;;;5074891;28;20526;-87
2022/01/09 12:57:55;;;;;;;6.00;1.95;;;6.50;99.90;;;;;;5075122;28;20162;-88
2022/01/09 13:00:39;;;;;;;13.20;2.40;;;6.60;99.90;;;;;;5074458;28;20093;-88
2022/01/09 13:03:26;;;;;;;11.88;1.83;;;6.60;99.90;;;;;;5074293;28;20416;-88
2022/01/09 13:06:13;;;;;;;13.45;1.98;;;6.60;99.90;;;;;;5074885;28;20039;-88
2022/01/09 13:09:23;;;;;;;10.48;1.85;;;7.10;99.90;;;;;;5074667;28;20058;-88
2022/01/09 13:12:08;;;;;;;9.68;1.73;;;6.60;99.90;;;;;;5059339;28;20389;-87
2022/01/09 13:14:52;;;;;;;5.85;1.48;;;6.60;99.90;;;;;;5059478;28;20204;-87
2022/01/09 13:17:47;;;;;;;8.90;1.80;;;6.60;99.90;;;;;;5074126;28;20043;-87
2022/01/09 13:20:32;;;;;;;9.05;1.92;;;6.60;99.90;;;;;;5074057;28;20044;-87
2022/01/09 13:23:16;;;;;;;9.43;2.70;;;6.50;99.90;;;;;;5059321;28;20093;-87
2022/01/09 13:26:00;;;;;;;;;;;7.00;99.90;;;;;;5059575;28;20404;-87
2022/01/09 13:28:46;;;;;;;3.92;1.55;;;6.40;99.90;;;;;;5058655;28;19938;-87
2022/01/09 13:31:37;;;;;;;7.38;1.50;;;6.50;99.90;;;;;;5073834;28;20031;-86
2022/01/09 13:34:42;;;;;;;8.13;1.40;;;7.10;99.90;;;;;;5058726;28;20044;-87
2022/01/09 13:37:26;;;;;;;9.65;1.33;;;6.40;99.90;;;;;;5073467;28;20040;-84
2022/01/09 13:40:10;;;;;;;3.80;1.10;;;6.30;99.90;;;;;;5074103;28;20504;-87
2022/01/09 13:42:55;;;;;;;5.05;1.30;;;6.30;99.90;;;;;;5058944;28;20041;-87
2022/01/09 13:45:39;;;;;;;5.82;1.50;;;6.90;99.90;;;;;;5058269;28;20090;-86
2022/01/09 13:48:24;;;;;;;3.50;1.02;;;6.30;99.90;;;;;;5073891;28;20087;-86
2022/01/09 13:51:08;;;;;;;4.70;1.10;;;6.30;99.90;;;;;;5044596;28;20043;-86
2022/01/09 13:54:09;;;;;;;;;;;6.20;99.90;;;;;;5074242;28;20090;-86
2022/01/09 13:57:26;;;;;;;7.75;2.00;;;6.20;99.90;;;;;;5073658;28;19969;-86
2022/01/09 14:00:11;;;;;;;4.82;1.40;;;6.20;99.90;;;;;;5053657;28;20051;-85
2022/01/09 14:02:58;;;;;;;4.15;1.20;;;6.10;99.90;;;;;;5073618;28;20542;-85
2022/01/09 14:05:44;;;;;;;6.40;1.30;;;6.10;99.90;;;;;;5073064;28;20036;-85
2022/01/09 14:08:36;;;;;;;5.70;2.20;;;6.10;99.90;;;;;;5073387;28;20129;-85
2022/01/09 14:11:21;;;;;;;8.57;1.35;;;6.10;99.90;;;;;;5073421;28;20484;-85
2022/01/09 14:14:06;;;;;;;7.53;1.38;;;6.30;99.90;;;;;;5073265;28;20039;-85
2022/01/09 14:16:50;;;;;;;6.18;1.45;;;6.10;99.90;;;;;;5058063;28;20101;-85
2022/01/09 14:19:45;;;;;;;5.53;1.38;;;6.10;99.90;;;;;;5072780;28;20140;-85
2022/01/09 14:22:47;;;;;;;5.25;1.80;;;6.00;99.90;;;;;;5058256;28;20044;-85
2022/01/09 14:25:38;;;;;;;6.10;1.35;;;5.90;99.90;;;;;;5058027;28;20166;-85
2022/01/09 14:28:22;;;;;;;6.22;1.60;;;6.00;99.90;;;;;;5073040;28;20047;-88
2022/01/09 14:31:08;;;;;;;;;;;5.70;99.90;;;;;;5058338;28;20059;-89
2022/01/09 14:33:55;;;;;;;4.47;1.42;;;5.90;99.90;;;;;;5073810;28;19962;-90
2022/01/09 14:36:41;;;;;;;8.52;1.70;;;6.70;99.90;;;;;;5072527;28;20138;-87
2022/01/09 14:39:27;;;;;;;10.45;2.13;;;6.40;99.90;;;;;;5072945;28;20525;-89
2022/01/09 14:42:11;;;;;;;6.22;1.77;;;5.60;99.90;;;;;;5057635;28;20071;-89
2022/01/09 14:44:55;;;;;;;7.88;1.55;;;6.30;99.90;;;;;;5056314;28;20127;-89
2022/01/09 14:47:39;;;;;;;4.53;1.02;;;6.80;99.90;;;;;;5043301;28;20051;-89
2022/01/09 14:50:24;;;;;;;6.88;2.70;;;5.90;99.90;;;;;;5057477;28;20075;-89